sensor_id;sensor_type;location;lat;lon;timestamp;temperature;humidity
32400;DHT22;45045;45.440;9.178;2023-04-01T00:01:07;18.40;98.10
32400;DHT22;45045;45.440;9.178;2023-04-01T00:03:40;18.30;99.90
32400;DHT22;45045;45.440;9.178;2023-04-01T00:06:11;18.30;99.90
32400;DHT22;45045;45.440;9.178;2023-04-01T00:08:48;18.30;99.90
32400;DHT22;45045;45.440;9.178;2023-04-01T00:11:13;18.40;99.90
32400;DHT22;45045;45.440;9.178;2023-04-01T00:13:58;18.40;99.90
32400;DHT22;45045;45.440;9.178;2023-04-01T00:16:26;18.50;99.90
32400;DHT22;45045;45.440;9.178;2023-04-01T00:18:51;18.50;99.90
32400;DHT22;45045;45.440;9.178;2023-04-01T00:21:27;18.50;99.90
32400;DHT22;45045;45.440;9.178;2023-04-01T00:23:55;18.50;99.90
32400;DHT22;45045;45.440;9.178;2023-04-01T00:26:39;18.50;99.90
32400;DHT22;45045;45.440;9.178;2023-04-01T00:29:17;18.50;99.90
32400;DHT22;45045;45.440;9.178;2023-04-01T00:31:45;18.60;99.90
32400;DHT22;45045;45.440;9.178;2023-04-01T00:34:18;18.50;99.90
32400;DHT22;45045;45.440;9.178;2023-04-01T00:36:53;18.50;99.90
32400;DHT22;45045;45.440;9.178;2023-04-01T00:39:22;18.50;99.90
32400;DHT22;45045;45.440;9.178;2023-04-01T00:41:47;18.50;99.90
32400;DHT22;45045;45.440;9.178;2023-04-01T00:44:21;18.50;99.90
32400;DHT22;45045;45.440;9.178;2023-04-01T00:46:49;18.50;99.90
32400;DHT22;45045;45.440;9.178;2023-04-01T00:49:18;18.50;99.90
32400;DHT22;45045;45.440;9.178;2023-04-01T00:52:07;18.50;99.90
32400;DHT22;45045;45.440;9.178;2023-04-01T00:54:41;18.50;99.90
32400;DHT22;45045;45.440;9.178;2023-04-01T00:57:09;18.50;99.80
32400;DHT22;45045;45.440;9.178;2023-04-01T00:59:39;18.50;99.90
32400;DHT22;45045;45.440;9.178;2023-04-01T01:02:15;18.40;99.90
32400;DHT22;45045;45.440;9.178;2023-04-01T01:04:43;18.40;99.80
32400;DHT22;45045;45.440;9.178;2023-04-01T01:17:30;18.10;99.90
32400;DHT22;45045;45.440;9.178;2023-04-01T01:22:39;18.10;99.90
32400;DHT22;45045;45.440;9.178;2023-04-01T01:25:12;18.10;99.90
32400;DHT22;45045;45.440;9.178;2023-04-01T01:27:47;18.00;99.90
32400;DHT22;45045;45.440;9.178;2023-04-01T01:33:25;17.80;99.30
32400;DHT22;45045;45.440;9.178;2023-04-01T01:36:04;17.80;99.90
32400;DHT22;45045;45.440;9.178;2023-04-01T01:38:34;17.80;99.90
32400;DHT22;45045;45.440;9.178;2023-04-01T01:41:02;17.80;99.90
32400;DHT22;45045;45.440;9.178;2023-04-01T01:43:50;17.90;99.90
32400;DHT22;45045;45.440;9.178;2023-04-01T01:46:18;17.90;99.60
32400;DHT22;45045;45.440;9.178;2023-04-01T01:48:47;17.80;99.70
32400;DHT22;45045;45.440;9.178;2023-04-01T01:51:14;17.70;99.20
32400;DHT22;45045;45.440;9.178;2023-04-01T01:54:00;17.70;99.90
32400;DHT22;45045;45.440;9.178;2023-04-01T01:56:31;17.70;99.60
32400;DHT22;45045;45.440;9.178;2023-04-01T01:59:01;17.80;99.90
32400;DHT22;45045;45.440;9.178;2023-04-01T02:01:29;17.80;99.80
32400;DHT22;45045;45.440;9.178;2023-04-01T02:03:59;17.80;99.90
32400;DHT22;45045;45.440;9.178;2023-04-01T02:06:27;17.90;99.90
32400;DHT22;45045;45.440;9.178;2023-04-01T02:08:56;17.90;99.80
32400;DHT22;45045;45.440;9.178;2023-04-01T02:11:30;17.90;99.80
32400;DHT22;45045;45.440;9.178;2023-04-01T02:14:01;18.00;99.70
32400;DHT22;45045;45.440;9.178;2023-04-01T02:19:15;17.90;99.60
32400;DHT22;45045;45.440;9.178;2023-04-01T02:21:51;17.90;99.60
32400;DHT22;45045;45.440;9.178;2023-04-01T02:24:18;18.00;99.50
32400;DHT22;45045;45.440;9.178;2023-04-01T02:26:48;18.00;99.50
32400;DHT22;45045;45.440;9.178;2023-04-01T02:29:21;18.00;99.50
32400;DHT22;45045;45.440;9.178;2023-04-01T02:31:48;18.00;99.50
32400;DHT22;45045;45.440;9.178;2023-04-01T02:34:24;17.90;99.40
32400;DHT22;45045;45.440;9.178;2023-04-01T02:36:50;17.90;99.40
32400;DHT22;45045;45.440;9.178;2023-04-01T02:39:23;17.90;99.80
32400;DHT22;45045;45.440;9.178;2023-04-01T02:41:56;17.90;99.40
32400;DHT22;45045;45.440;9.178;2023-04-01T02:44:29;17.90;99.40
32400;DHT22;45045;45.440;9.178;2023-04-01T02:46:56;17.90;99.40
32400;DHT22;45045;45.440;9.178;2023-04-01T02:49:26;17.90;99.40
32400;DHT22;45045;45.440;9.178;2023-04-01T02:51:57;17.90;99.40
32400;DHT22;45045;45.440;9.178;2023-04-01T02:54:22;17.90;99.50
32400;DHT22;45045;45.440;9.178;2023-04-01T02:56:48;17.80;99.50
32400;DHT22;45045;45.440;9.178;2023-04-01T02:59:14;17.80;99.40
32400;DHT22;45045;45.440;9.178;2023-04-01T03:01:39;17.80;99.40
32400;DHT22;45045;45.440;9.178;2023-04-01T03:04:07;17.80;99.40
32400;DHT22;45045;45.440;9.178;2023-04-01T03:06:35;17.80;99.50
32400;DHT22;45045;45.440;9.178;2023-04-01T03:09:03;17.80;99.50
32400;DHT22;45045;45.440;9.178;2023-04-01T03:11:36;17.80;99.50
32400;DHT22;45045;45.440;9.178;2023-04-01T03:14:04;17.80;99.50
32400;DHT22;45045;45.440;9.178;2023-04-01T03:16:37;17.80;99.50
32400;DHT22;45045;45.440;9.178;2023-04-01T03:19:08;17.80;99.40
32400;DHT22;45045;45.440;9.178;2023-04-01T03:21:36;17.80;99.40
32400;DHT22;45045;45.440;9.178;2023-04-01T03:24:04;17.80;99.40
32400;DHT22;45045;45.440;9.178;2023-04-01T03:26:30;17.70;99.40
32400;DHT22;45045;45.440;9.178;2023-04-01T03:29:01;17.70;99.40
32400;DHT22;45045;45.440;9.178;2023-04-01T03:31:27;17.70;99.40
32400;DHT22;45045;45.440;9.178;2023-04-01T03:33:52;17.70;99.40
32400;DHT22;45045;45.440;9.178;2023-04-01T03:36:20;17.70;99.70
32400;DHT22;45045;45.440;9.178;2023-04-01T03:38:56;17.70;99.40
32400;DHT22;45045;45.440;9.178;2023-04-01T03:41:29;17.70;99.40
32400;DHT22;45045;45.440;9.178;2023-04-01T03:44:03;17.70;99.40
32400;DHT22;45045;45.440;9.178;2023-04-01T03:46:31;17.70;99.40
32400;DHT22;45045;45.440;9.178;2023-04-01T03:48:59;17.70;99.40
32400;DHT22;45045;45.440;9.178;2023-04-01T03:51:27;17.60;99.40
32400;DHT22;45045;45.440;9.178;2023-04-01T03:53:58;17.60;99.30
32400;DHT22;45045;45.440;9.178;2023-04-01T03:56:44;17.60;99.30
32400;DHT22;45045;45.440;9.178;2023-04-01T03:59:10;17.60;99.30
32400;DHT22;45045;45.440;9.178;2023-04-01T04:01:35;17.60;99.30
32400;DHT22;45045;45.440;9.178;2023-04-01T04:04:11;17.60;99.30
32400;DHT22;45045;45.440;9.178;2023-04-01T04:06:39;17.60;99.30
32400;DHT22;45045;45.440;9.178;2023-04-01T04:09:15;17.60;99.30
32400;DHT22;45045;45.440;9.178;2023-04-01T04:11:41;17.60;99.30
32400;DHT22;45045;45.440;9.178;2023-04-01T04:14:16;17.60;99.30
32400;DHT22;45045;45.440;9.178;2023-04-01T04:16:43;17.50;99.30
32400;DHT22;45045;45.440;9.178;2023-04-01T04:19:11;17.50;99.40
32400;DHT22;45045;45.440;9.178;2023-04-01T04:21:44;17.50;99.40
32400;DHT22;45045;45.440;9.178;2023-04-01T04:24:10;17.50;99.40
32400;DHT22;45045;45.440;9.178;2023-04-01T04:26:40;17.50;99.40
32400;DHT22;45045;45.440;9.178;2023-04-01T04:29:06;17.50;99.40
32400;DHT22;45045;45.440;9.178;2023-04-01T04:31:34;17.50;99.40
32400;DHT22;45045;45.440;9.178;2023-04-01T04:34:02;17.50;99.40
32400;DHT22;45045;45.440;9.178;2023-04-01T04:36:30;17.50;99.40
32400;DHT22;45045;45.440;9.178;2023-04-01T04:38:55;17.50;99.30
32400;DHT22;45045;45.440;9.178;2023-04-01T04:41:30;17.50;99.30
32400;DHT22;45045;45.440;9.178;2023-04-01T04:44:05;17.50;99.30
32400;DHT22;45045;45.440;9.178;2023-04-01T04:46:36;17.50;99.30
32400;DHT22;45045;45.440;9.178;2023-04-01T04:49:04;17.50;99.30
32400;DHT22;45045;45.440;9.178;2023-04-01T04:51:31;17.40;99.30
32400;DHT22;45045;45.440;9.178;2023-04-01T04:54:01;17.40;99.30
32400;DHT22;45045;45.440;9.178;2023-04-01T04:56:34;17.40;99.30
32400;DHT22;45045;45.440;9.178;2023-04-01T04:59:01;17.40;99.30
32400;DHT22;45045;45.440;9.178;2023-04-01T05:01:29;17.40;99.30
32400;DHT22;45045;45.440;9.178;2023-04-01T05:03:55;17.40;99.30
32400;DHT22;45045;45.440;9.178;2023-04-01T05:06:20;17.40;99.30
32400;DHT22;45045;45.440;9.178;2023-04-01T05:08:57;17.40;99.30
32400;DHT22;45045;45.440;9.178;2023-04-01T05:11:23;17.40;99.30
32400;DHT22;45045;45.440;9.178;2023-04-01T05:13:49;17.40;99.30
32400;DHT22;45045;45.440;9.178;2023-04-01T05:16:19;17.40;99.30
32400;DHT22;45045;45.440;9.178;2023-04-01T05:18:47;17.30;99.20
32400;DHT22;45045;45.440;9.178;2023-04-01T05:21:26;17.30;99.20
32400;DHT22;45045;45.440;9.178;2023-04-01T05:23:51;17.30;99.10
32400;DHT22;45045;45.440;9.178;2023-04-01T05:26:24;17.30;99.10
32400;DHT22;45045;45.440;9.178;2023-04-01T05:28:50;17.30;99.10
32400;DHT22;45045;45.440;9.178;2023-04-01T05:31:15;17.30;99.10
32400;DHT22;45045;45.440;9.178;2023-04-01T05:33:46;17.30;99.00
32400;DHT22;45045;45.440;9.178;2023-04-01T05:36:14;17.30;99.00
32400;DHT22;45045;45.440;9.178;2023-04-01T05:38:39;17.30;99.00
32400;DHT22;45045;45.440;9.178;2023-04-01T05:41:13;17.30;99.00
32400;DHT22;45045;45.440;9.178;2023-04-01T05:43:39;17.30;99.00
32400;DHT22;45045;45.440;9.178;2023-04-01T05:46:07;17.30;99.00
32400;DHT22;45045;45.440;9.178;2023-04-01T05:48:36;17.30;99.00
32400;DHT22;45045;45.440;9.178;2023-04-01T05:51:04;17.20;98.90
32400;DHT22;45045;45.440;9.178;2023-04-01T05:53:30;17.30;99.00
32400;DHT22;45045;45.440;9.178;2023-04-01T05:56:07;17.20;99.00
32400;DHT22;45045;45.440;9.178;2023-04-01T05:58:42;17.20;99.00
32400;DHT22;45045;45.440;9.178;2023-04-01T06:01:08;17.20;98.90
32400;DHT22;45045;45.440;9.178;2023-04-01T06:03:39;17.20;98.90
32400;DHT22;45045;45.440;9.178;2023-04-01T06:06:05;17.20;98.90
32400;DHT22;45045;45.440;9.178;2023-04-01T06:08:41;17.20;98.90
32400;DHT22;45045;45.440;9.178;2023-04-01T06:11:18;17.20;98.90
32400;DHT22;45045;45.440;9.178;2023-04-01T06:13:59;17.20;98.90
32400;DHT22;45045;45.440;9.178;2023-04-01T06:16:39;17.10;98.70
32400;DHT22;45045;45.440;9.178;2023-04-01T06:32:22;17.20;98.50
32400;DHT22;45045;45.440;9.178;2023-04-01T06:40:05;17.30;98.10
32400;DHT22;45045;45.440;9.178;2023-04-01T06:42:52;17.30;97.90
32400;DHT22;45045;45.440;9.178;2023-04-01T06:53:53;17.50;97.60
32400;DHT22;45045;45.440;9.178;2023-04-01T06:56:20;17.50;97.40
32400;DHT22;45045;45.440;9.178;2023-04-01T06:58:55;17.50;97.20
32400;DHT22;45045;45.440;9.178;2023-04-01T07:04:00;17.60;97.10
32400;DHT22;45045;45.440;9.178;2023-04-01T07:06:35;17.60;96.90
32400;DHT22;45045;45.440;9.178;2023-04-01T07:09:04;17.60;97.00
32400;DHT22;45045;45.440;9.178;2023-04-01T07:11:33;17.60;96.90
32400;DHT22;45045;45.440;9.178;2023-04-01T07:14:04;17.60;96.80
32400;DHT22;45045;45.440;9.178;2023-04-01T07:19:45;17.60;96.90
32400;DHT22;45045;45.440;9.178;2023-04-01T07:22:21;17.60;96.80
32400;DHT22;45045;45.440;9.178;2023-04-01T07:24:52;17.70;96.60
32400;DHT22;45045;45.440;9.178;2023-04-01T07:27:18;17.80;96.60
32400;DHT22;45045;45.440;9.178;2023-04-01T07:29:47;17.80;96.20
32400;DHT22;45045;45.440;9.178;2023-04-01T07:32:26;17.80;96.20
32400;DHT22;45045;45.440;9.178;2023-04-01T07:58:39;18.20;94.50
32400;DHT22;45045;45.440;9.178;2023-04-01T08:03:50;18.40;94.30
32400;DHT22;45045;45.440;9.178;2023-04-01T08:21:52;18.70;93.50
32400;DHT22;45045;45.440;9.178;2023-04-01T08:24:24;18.70;93.50
32400;DHT22;45045;45.440;9.178;2023-04-01T08:26:51;18.80;93.50
32400;DHT22;45045;45.440;9.178;2023-04-01T08:29:19;18.90;93.40
32400;DHT22;45045;45.440;9.178;2023-04-01T08:32:06;18.90;93.20
32400;DHT22;45045;45.440;9.178;2023-04-01T08:34:36;19.00;92.80
32400;DHT22;45045;45.440;9.178;2023-04-01T08:37:10;19.00;92.70
32400;DHT22;45045;45.440;9.178;2023-04-01T08:39:37;19.00;92.50
32400;DHT22;45045;45.440;9.178;2023-04-01T08:42:27;19.10;92.20
32400;DHT22;45045;45.440;9.178;2023-04-01T08:45:07;19.20;90.80
32400;DHT22;45045;45.440;9.178;2023-04-01T08:53:03;19.40;90.00
32400;DHT22;45045;45.440;9.178;2023-04-01T08:55:40;19.60;89.60
32400;DHT22;45045;45.440;9.178;2023-04-01T08:58:54;19.60;89.50
32400;DHT22;45045;45.440;9.178;2023-04-01T09:27:05;20.40;84.90
32400;DHT22;45045;45.440;9.178;2023-04-01T09:34:52;20.80;82.50
32400;DHT22;45045;45.440;9.178;2023-04-01T09:47:54;21.00;82.50
32400;DHT22;45045;45.440;9.178;2023-04-01T09:50:30;21.10;82.00
32400;DHT22;45045;45.440;9.178;2023-04-01T09:58:43;21.30;81.00
32400;DHT22;45045;45.440;9.178;2023-04-01T10:04:07;21.50;79.10
32400;DHT22;45045;45.440;9.178;2023-04-01T10:06:44;21.60;80.80
32400;DHT22;45045;45.440;9.178;2023-04-01T10:30:24;22.20;70.50
32400;DHT22;45045;45.440;9.178;2023-04-01T10:33:02;22.30;73.10
32400;DHT22;45045;45.440;9.178;2023-04-01T10:38:26;22.40;70.60
32400;DHT22;45045;45.440;9.178;2023-04-01T10:49:14;22.60;72.40
32400;DHT22;45045;45.440;9.178;2023-04-01T10:51:56;22.60;70.60
32400;DHT22;45045;45.440;9.178;2023-04-01T10:59:53;22.70;69.60
32400;DHT22;45045;45.440;9.178;2023-04-01T11:34:12;23.80;60.60
32400;DHT22;45045;45.440;9.178;2023-04-01T11:41:56;23.90;57.80
32400;DHT22;45045;45.440;9.178;2023-04-01T11:44:27;24.10;57.60
32400;DHT22;45045;45.440;9.178;2023-04-01T11:55:03;24.60;55.60
32400;DHT22;45045;45.440;9.178;2023-04-01T12:20:57;24.60;53.50
32400;DHT22;45045;45.440;9.178;2023-04-01T12:31:16;25.50;54.10
32400;DHT22;45045;45.440;9.178;2023-04-01T12:33:54;25.20;52.50
32400;DHT22;45045;45.440;9.178;2023-04-01T12:36:35;25.00;54.60
32400;DHT22;45045;45.440;9.178;2023-04-01T12:44:26;25.30;53.70
32400;DHT22;45045;45.440;9.178;2023-04-01T12:47:07;25.30;53.70
32400;DHT22;45045;45.440;9.178;2023-04-01T12:52:09;25.50;47.30
32400;DHT22;45045;45.440;9.178;2023-04-01T12:54:48;25.50;47.50
32400;DHT22;45045;45.440;9.178;2023-04-01T12:57:26;25.60;45.30
32400;DHT22;45045;45.440;9.178;2023-04-01T13:00:39;25.40;51.80
32400;DHT22;45045;45.440;9.178;2023-04-01T13:07:57;25.50;52.50
32400;DHT22;45045;45.440;9.178;2023-04-01T13:13:18;25.60;51.00
32400;DHT22;45045;45.440;9.178;2023-04-01T13:18:59;26.10;48.40
32400;DHT22;45045;45.440;9.178;2023-04-01T13:24:16;26.00;45.20
32400;DHT22;45045;45.440;9.178;2023-04-01T13:27:01;26.10;45.40
32400;DHT22;45045;45.440;9.178;2023-04-01T13:29:31;26.10;44.80
32400;DHT22;45045;45.440;9.178;2023-04-01T13:39:43;26.10;46.80
32400;DHT22;45045;45.440;9.178;2023-04-01T13:57:58;26.20;40.40
32400;DHT22;45045;45.440;9.178;2023-04-01T14:38:46;26.80;46.70
32400;DHT22;45045;45.440;9.178;2023-04-01T14:48:58;26.90;42.20
32400;DHT22;45045;45.440;9.178;2023-04-01T14:54:05;27.00;43.50
32400;DHT22;45045;45.440;9.178;2023-04-01T15:01:49;26.80;45.10
32400;DHT22;45045;45.440;9.178;2023-04-01T15:07:45;26.80;43.80
32400;DHT22;45045;45.440;9.178;2023-04-01T15:09:53;26.90;43.00
32400;DHT22;45045;45.440;9.178;2023-04-01T15:26:05;26.60;41.40
32400;DHT22;45045;45.440;9.178;2023-04-01T15:36:07;26.70;41.60
32400;DHT22;45045;45.440;9.178;2023-04-01T15:38:39;26.70;41.40
32400;DHT22;45045;45.440;9.178;2023-04-01T15:41:17;26.70;40.50
32400;DHT22;45045;45.440;9.178;2023-04-01T15:43:47;26.70;42.50
32400;DHT22;45045;45.440;9.178;2023-04-01T15:59:33;26.60;40.30
32400;DHT22;45045;45.440;9.178;2023-04-01T16:01:58;26.60;40.30
32400;DHT22;45045;45.440;9.178;2023-04-01T16:12:04;26.50;38.10
32400;DHT22;45045;45.440;9.178;2023-04-01T16:20:13;26.30;41.00
32400;DHT22;45045;45.440;9.178;2023-04-01T16:22:45;26.30;41.20
32400;DHT22;45045;45.440;9.178;2023-04-01T16:30:25;26.10;36.90
32400;DHT22;45045;45.440;9.178;2023-04-01T16:38:15;26.00;35.60
32400;DHT22;45045;45.440;9.178;2023-04-01T16:43:11;25.90;37.20
32400;DHT22;45045;45.440;9.178;2023-04-01T16:56:02;25.60;35.80
32400;DHT22;45045;45.440;9.178;2023-04-01T17:01:18;25.60;36.70
32400;DHT22;45045;45.440;9.178;2023-04-01T17:06:56;25.70;39.30
32400;DHT22;45045;45.440;9.178;2023-04-01T17:09:39;25.60;38.30
32400;DHT22;45045;45.440;9.178;2023-04-01T17:15:21;25.50;37.60
32400;DHT22;45045;45.440;9.178;2023-04-01T17:20:58;25.50;38.10
32400;DHT22;45045;45.440;9.178;2023-04-01T17:38:13;25.30;41.70
32400;DHT22;45045;45.440;9.178;2023-04-01T18:00:24;25.10;45.60
32400;DHT22;45045;45.440;9.178;2023-04-01T18:05:47;25.00;46.00
32400;DHT22;45045;45.440;9.178;2023-04-01T18:08:12;24.90;46.30
32400;DHT22;45045;45.440;9.178;2023-04-01T18:15:54;24.80;49.00
32400;DHT22;45045;45.440;9.178;2023-04-01T18:21:50;24.80;47.00
32400;DHT22;45045;45.440;9.178;2023-04-01T18:24:28;24.70;46.10
32400;DHT22;45045;45.440;9.178;2023-04-01T18:29:36;24.50;43.70
32400;DHT22;45045;45.440;9.178;2023-04-01T18:32:10;24.40;47.20
32400;DHT22;45045;45.440;9.178;2023-04-01T18:37:44;24.50;49.70
32400;DHT22;45045;45.440;9.178;2023-04-01T18:40:16;24.50;50.50
32400;DHT22;45045;45.440;9.178;2023-04-01T18:42:46;24.50;51.20
32400;DHT22;45045;45.440;9.178;2023-04-01T18:45:30;24.40;52.10
32400;DHT22;45045;45.440;9.178;2023-04-01T18:48:28;24.40;52.40
32400;DHT22;45045;45.440;9.178;2023-04-01T18:54:23;24.40;53.30
32400;DHT22;45045;45.440;9.178;2023-04-01T18:57:16;24.30;53.80
32400;DHT22;45045;45.440;9.178;2023-04-01T19:00:08;24.30;53.80
32400;DHT22;45045;45.440;9.178;2023-04-01T19:02:58;24.20;54.20
32400;DHT22;45045;45.440;9.178;2023-04-01T19:05:36;24.20;54.20
32400;DHT22;45045;45.440;9.178;2023-04-01T19:13:21;24.10;55.50
32400;DHT22;45045;45.440;9.178;2023-04-01T19:23:30;24.00;56.00
32400;DHT22;45045;45.440;9.178;2023-04-01T19:26:01;23.90;56.30
32400;DHT22;45045;45.440;9.178;2023-04-01T19:31:13;23.80;56.80
32400;DHT22;45045;45.440;9.178;2023-04-01T19:44:56;23.70;57.70
32400;DHT22;45045;45.440;9.178;2023-04-01T19:47:39;23.70;58.10
32400;DHT22;45045;45.440;9.178;2023-04-01T19:50:20;23.60;57.70
32400;DHT22;45045;45.440;9.178;2023-04-01T19:52:49;23.60;58.10
32400;DHT22;45045;45.440;9.178;2023-04-01T19:57:51;23.60;58.50
32400;DHT22;45045;45.440;9.178;2023-04-01T20:00:30;23.50;58.50
32400;DHT22;45045;45.440;9.178;2023-04-01T20:03:01;23.50;58.70
32400;DHT22;45045;45.440;9.178;2023-04-01T20:08:10;23.40;54.10
32400;DHT22;45045;45.440;9.178;2023-04-01T20:15:57;23.00;45.80
32400;DHT22;45045;45.440;9.178;2023-04-01T20:21:21;22.90;49.90
32400;DHT22;45045;45.440;9.178;2023-04-01T20:23:54;22.80;55.10
32400;DHT22;45045;45.440;9.178;2023-04-01T20:26:34;22.80;54.90
32400;DHT22;45045;45.440;9.178;2023-04-01T20:29:15;22.80;47.80
32400;DHT22;45045;45.440;9.178;2023-04-01T20:31:44;22.80;53.00
32400;DHT22;45045;45.440;9.178;2023-04-01T20:34:32;22.90;55.90
32400;DHT22;45045;45.440;9.178;2023-04-01T20:37:14;22.90;52.20
32400;DHT22;45045;45.440;9.178;2023-04-01T20:50:28;22.80;58.70
32400;DHT22;45045;45.440;9.178;2023-04-01T20:53:12;22.80;57.50
32400;DHT22;45045;45.440;9.178;2023-04-01T20:58:24;22.80;58.90
32400;DHT22;45045;45.440;9.178;2023-04-01T21:01:05;22.80;59.30
32400;DHT22;45045;45.440;9.178;2023-04-01T21:04:18;22.70;59.10
32400;DHT22;45045;45.440;9.178;2023-04-01T21:09:11;22.70;59.60
32400;DHT22;45045;45.440;9.178;2023-04-01T21:14:33;22.60;59.00
32400;DHT22;45045;45.440;9.178;2023-04-01T21:22:00;22.40;60.20
32400;DHT22;45045;45.440;9.178;2023-04-01T21:29:38;22.20;55.50
32400;DHT22;45045;45.440;9.178;2023-04-01T21:39:51;21.90;52.50
32400;DHT22;45045;45.440;9.178;2023-04-01T21:45:12;21.90;51.70
32400;DHT22;45045;45.440;9.178;2023-04-01T22:01:05;21.90;57.10
32400;DHT22;45045;45.440;9.178;2023-04-01T22:19:16;21.40;53.40
32400;DHT22;45045;45.440;9.178;2023-04-01T22:24:34;21.30;58.20
32400;DHT22;45045;45.440;9.178;2023-04-01T22:35:08;21.40;60.80
32400;DHT22;45045;45.440;9.178;2023-04-01T22:40:10;21.40;60.00
32400;DHT22;45045;45.440;9.178;2023-04-01T22:45:30;21.50;60.20
32400;DHT22;45045;45.440;9.178;2023-04-01T22:53:17;21.50;59.60
32400;DHT22;45045;45.440;9.178;2023-04-01T22:55:46;21.40;59.10
32400;DHT22;45045;45.440;9.178;2023-04-01T22:58:14;21.40;59.30
32400;DHT22;45045;45.440;9.178;2023-04-01T23:00:47;21.40;59.20
32400;DHT22;45045;45.440;9.178;2023-04-01T23:03:32;21.50;59.00
32400;DHT22;45045;45.440;9.178;2023-04-01T23:06:00;21.50;59.00
32400;DHT22;45045;45.440;9.178;2023-04-01T23:11:22;21.30;58.90
32400;DHT22;45045;45.440;9.178;2023-04-01T23:16:39;21.30;58.30
32400;DHT22;45045;45.440;9.178;2023-04-01T23:19:17;21.30;58.60
32400;DHT22;45045;45.440;9.178;2023-04-01T23:21:48;21.30;58.70
32400;DHT22;45045;45.440;9.178;2023-04-01T23:24:19;21.30;58.40
32400;DHT22;45045;45.440;9.178;2023-04-01T23:26:50;21.20;58.60
32400;DHT22;45045;45.440;9.178;2023-04-01T23:29:17;21.20;58.50
32400;DHT22;45045;45.440;9.178;2023-04-01T23:31:44;21.20;57.80
32400;DHT22;45045;45.440;9.178;2023-04-01T23:36:40;21.10;58.30
32400;DHT22;45045;45.440;9.178;2023-04-01T23:39:29;21.10;54.40
32400;DHT22;45045;45.440;9.178;2023-04-01T23:41:54;21.10;58.20
32400;DHT22;45045;45.440;9.178;2023-04-01T23:44:21;21.00;58.20
32400;DHT22;45045;45.440;9.178;2023-04-01T23:46:48;21.00;58.10
32400;DHT22;45045;45.440;9.178;2023-04-01T23:49:18;21.10;56.70
32400;DHT22;45045;45.440;9.178;2023-04-01T23:51:49;21.00;57.60
32400;DHT22;45045;45.440;9.178;2023-04-01T23:54:24;21.00;57.90
32400;DHT22;45045;45.440;9.178;2023-04-01T23:56:54;21.10;57.90
32400;DHT22;45045;45.440;9.178;2023-04-01T23:59:26;21.00;57.90
